Time;durP1;ratioP1;P1;durP2;ratioP2;P2;SDS_P1;SDS_P2;PMS_P1;PMS_P2;Temp;Humidity;BMP_temperature;BMP_pressure;BME280_temperature;BME280_humidity;BME280_pressure;Samples;Min_cycle;Max_cycle;Signal;HPM_P1;HPM_P2
2021/06/25 00:00:38;;;;;;;5.90;3.90;;;;;;;20.90;71.38;100982.84;5086332;28;20208;-71
2021/06/25 00:03:06;;;;;;;10.67;4.57;;;;;;;20.90;71.98;100982.00;5088619;28;20209;-72
2021/06/25 00:05:35;;;;;;;5.70;3.97;;;;;;;20.86;72.54;100983.34;5085958;28;20193;-71
2021/06/25 00:08:03;;;;;;;6.90;3.90;;;;;;;20.83;72.51;100986.41;5088961;28;20192;-71
2021/06/25 00:10:32;;;;;;;7.30;3.83;;;;;;;20.59;72.68;100947.06;5089419;28;20200;-72
2021/06/25 00:13:02;;;;;;;6.53;3.97;;;;;;;20.80;72.87;100976.63;5090759;28;20184;-71
2021/06/25 00:15:30;;;;;;;7.07;3.87;;;;;;;20.78;72.44;100976.81;5078145;28;20193;-71
2021/06/25 00:17:59;;;;;;;6.23;4.07;;;;;;;20.73;72.55;100978.31;5086204;28;20742;-71
2021/06/25 00:20:28;;;;;;;8.13;4.40;;;;;;;20.54;73.35;100954.03;5090131;28;20200;-72
2021/06/25 00:22:57;;;;;;;6.93;4.17;;;;;;;20.66;73.11;100972.66;5089431;28;20901;-72
2021/06/25 00:25:26;;;;;;;7.27;4.43;;;;;;;20.57;74.63;100962.75;5089649;28;20675;-71
2021/06/25 00:27:54;;;;;;;8.13;4.23;;;;;;;20.48;74.73;100960.97;5085878;28;20201;-71
2021/06/25 00:30:24;;;;;;;5.30;4.10;;;;;;;20.53;74.57;100968.69;5089199;28;20200;-72
2021/06/25 00:32:53;;;;;;;10.80;4.30;;;;;;;20.51;74.31;100963.41;5088890;28;20197;-71
2021/06/25 00:35:21;;;;;;;5.43;3.80;;;;;;;20.58;73.24;100967.19;5071711;28;20558;-71
2021/06/25 00:37:49;;;;;;;6.13;3.97;;;;;;;20.56;73.56;100963.75;5084766;28;20722;-71
2021/06/25 00:40:18;;;;;;;7.60;4.80;;;;;;;20.45;73.53;100944.94;5089569;28;20694;-72
2021/06/25 00:42:46;;;;;;;6.77;4.60;;;;;;;20.54;73.91;100962.22;5088519;28;20264;-72
2021/06/25 00:45:18;;;;;;;5.70;4.17;;;;;;;20.36;75.16;100946.72;5090255;28;20241;-72
2021/06/25 00:47:49;;;;;;;8.27;4.60;;;;;;;20.39;75.78;100956.47;5086757;28;20426;-72
2021/06/25 00:50:20;;;;;;;7.30;4.13;;;;;;;20.37;75.65;100955.78;5088961;28;20216;-72
2021/06/25 00:52:51;;;;;;;5.70;4.40;;;;;;;20.33;76.36;100954.38;5088198;28;20690;-71
2021/06/25 00:55:20;;;;;;;7.00;4.47;;;;;;;20.28;75.93;100951.28;5087828;28;20215;-72
2021/06/25 00:57:49;;;;;;;7.47;4.33;;;;;;;20.22;76.55;100957.41;5088076;28;20683;-72
2021/06/25 01:00:19;;;;;;;6.47;4.30;;;;;;;20.05;78.09;100937.34;5089680;28;20192;-71
2021/06/25 01:02:49;;;;;;;6.87;4.60;;;;;;;20.11;77.32;100953.06;5087909;28;20664;-72
2021/06/25 01:05:17;;;;;;;10.33;5.10;;;;;;;20.13;77.06;100962.78;5085329;28;20248;-72
2021/06/25 01:07:46;;;;;;;6.17;4.40;;;;;;;19.71;78.00;100897.25;5089236;28;20288;-72
2021/06/25 01:10:14;;;;;;;8.53;4.90;;;;;;;20.01;78.59;100947.72;5087993;28;20204;-72
2021/06/25 01:12:43;;;;;;;9.73;5.07;;;;;;;20.05;77.98;100954.56;5088496;28;20215;-72
2021/06/25 01:15:13;;;;;;;7.97;5.20;;;;;;;20.09;77.61;100945.03;5088341;28;20675;-72
2021/06/25 01:17:43;;;;;;;6.53;4.63;;;;;;;20.09;76.99;100945.03;5087597;28;20336;-72
2021/06/25 01:20:15;;;;;;;7.63;4.70;;;;;;;20.06;77.16;100942.63;5089608;28;20196;-72
2021/06/25 01:22:45;;;;;;;8.23;4.43;;;;;;;20.02;78.10;100941.25;5088947;28;20523;-73
2021/06/25 01:25:16;;;;;;;11.27;4.90;;;;;;;20.03;77.69;100936.66;5088415;28;20587;-72
2021/06/25 01:27:46;;;;;;;7.87;4.50;;;;;;;20.01;77.14;100925.91;5085883;28;20203;-73
2021/06/25 01:30:18;;;;;;;10.73;4.80;;;;;;;20.06;77.03;100937.19;5077446;28;20192;-72
2021/06/25 01:32:46;;;;;;;10.43;5.07;;;;;;;20.08;75.94;100926.97;5086046;28;20205;-73
2021/06/25 01:35:15;;;;;;;8.00;4.50;;;;;;;20.08;76.47;100926.09;5088526;28;20201;-72
2021/06/25 01:37:45;;;;;;;8.37;5.00;;;;;;;20.11;76.23;100921.19;5086856;28;20248;-73
2021/06/25 01:40:15;;;;;;;10.40;4.63;;;;;;;20.11;76.70;100920.31;5081144;28;20208;-72
2021/06/25 01:42:45;;;;;;;9.40;4.60;;;;;;;20.07;76.47;100918.94;5087953;28;20811;-73
2021/06/25 01:45:15;;;;;;;7.23;4.53;;;;;;;19.78;77.11;100875.66;5081861;28;20567;-72
2021/06/25 01:47:45;;;;;;;6.50;4.40;;;;;;;20.04;77.19;100908.38;5085881;28;20245;-73
2021/06/25 01:50:15;;;;;;;10.10;5.40;;;;;;;20.00;77.62;100912.44;5088471;28;20667;-72
2021/06/25 01:52:46;;;;;;;9.40;4.87;;;;;;;19.94;77.85;100915.81;5087894;28;20200;-73
2021/06/25 01:55:14;;;;;;;9.10;5.03;;;;;;;19.66;77.87;100875.06;5082226;28;20267;-72
2021/06/25 01:57:44;;;;;;;8.57;4.93;;;;;;;19.95;77.71;100912.91;5071290;28;20236;-73
2021/06/25 02:00:13;;;;;;;9.33;5.53;;;;;;;19.96;77.38;100906.44;5077827;28;20604;-72
2021/06/25 02:02:41;;;;;;;12.40;5.33;;;;;;;19.99;77.08;100917.03;5073334;28;20220;-72
2021/06/25 02:05:12;;;;;;;10.17;4.93;;;;;;;20.01;76.97;100920.44;5082842;28;20193;-73
2021/06/25 02:07:41;;;;;;;8.83;5.33;;;;;;;20.01;77.34;100912.28;5079552;28;20536;-72
2021/06/25 02:10:12;;;;;;;7.67;4.80;;;;;;;20.00;77.41;100905.09;5086626;28;20583;-72
2021/06/25 02:12:40;;;;;;;7.90;4.97;;;;;;;19.95;78.06;100892.97;5073325;28;20644;-72
2021/06/25 02:15:11;;;;;;;8.30;4.90;;;;;;;19.87;78.12;100896.47;5087859;28;20663;-72
2021/06/25 02:17:39;;;;;;;11.57;5.30;;;;;;;19.70;79.05;100891.94;5087031;28;20893;-72
2021/06/25 02:20:09;;;;;;;10.30;5.03;;;;;;;19.70;79.85;100905.56;5087804;28;20193;-72
2021/06/25 02:22:38;;;;;;;9.93;5.17;;;;;;;19.72;79.37;100907.13;5086862;28;20200;-72
2021/06/25 02:25:10;;;;;;;10.60;5.43;;;;;;;19.75;77.87;100911.41;5087902;28;20192;-72
2021/06/25 02:27:39;;;;;;;7.33;5.20;;;;;;;19.84;77.26;100919.47;5086215;28;20838;-72
2021/06/25 02:30:09;;;;;;;8.73;4.60;;;;;;;19.87;77.49;100918.28;5087703;28;20193;-72
2021/06/25 02:32:37;;;;;;;7.83;5.20;;;;;;;19.88;77.18;100917.28;5087321;28;20192;-72
2021/06/25 02:35:06;;;;;;;8.37;5.00;;;;;;;19.94;77.19;100924.00;5072951;28;20645;-72
2021/06/25 02:37:34;;;;;;;8.83;5.53;;;;;;;19.97;76.17;100923.66;5087911;28;20702;-72
2021/06/25 02:40:03;;;;;;;7.47;4.80;;;;;;;19.98;76.63;100920.78;5087878;28;20331;-72
2021/06/25 02:42:31;;;;;;;11.70;5.37;;;;;;;20.01;76.40;100925.03;5086719;28;20196;-72
2021/06/25 02:45:01;;;;;;;10.53;5.57;;;;;;;19.77;77.21;100887.56;5086934;28;20189;-72
2021/06/25 02:47:30;;;;;;;9.77;4.97;;;;;;;20.01;76.59;100925.91;5085869;28;20206;-72
2021/06/25 02:49:58;;;;;;;9.30;5.40;;;;;;;19.98;77.08;100922.66;5093019;28;20212;-72
2021/06/25 02:52:26;;;;;;;8.43;5.20;;;;;;;20.00;77.23;100924.19;5086963;28;20224;-72
2021/06/25 02:54:54;;;;;;;8.07;5.20;;;;;;;20.01;77.73;100914.16;5085674;28;20196;-72
2021/06/25 02:57:22;;;;;;;8.70;5.20;;;;;;;20.00;77.51;100918.75;5086455;28;20684;-72
2021/06/25 02:59:51;;;;;;;10.80;5.57;;;;;;;19.99;77.86;100918.91;5086908;28;20670;-72
2021/06/25 03:02:20;;;;;;;10.43;5.50;;;;;;;20.03;77.19;100918.41;5087830;28;20201;-72
2021/06/25 03:04:48;;;;;;;8.90;5.53;;;;;;;20.03;77.75;100923.88;5085548;28;20200;-72
2021/06/25 03:07:16;;;;;;;8.93;5.53;;;;;;;20.04;78.06;100913.81;5086915;28;20205;-72
2021/06/25 03:09:44;;;;;;;8.70;5.30;;;;;;;20.07;76.84;100925.25;5087397;28;20196;-72
2021/06/25 03:12:12;;;;;;;9.13;5.37;;;;;;;19.91;77.43;100887.00;5086389;28;20202;-72
2021/06/25 03:14:41;;;;;;;9.20;5.33;;;;;;;20.08;77.75;100915.19;5085789;28;20663;-72
2021/06/25 03:17:10;;;;;;;11.63;5.53;;;;;;;20.09;77.57;100915.03;5082298;28;20241;-72
2021/06/25 03:19:39;;;;;;;8.17;4.97;;;;;;;20.12;77.10;100911.13;5083764;28;20456;-72
2021/06/25 03:22:07;;;;;;;10.27;6.30;;;;;;;20.01;77.90;100895.91;5084774;28;20262;-72
2021/06/25 03:24:35;;;;;;;9.90;6.13;;;;;;;20.04;77.53;100901.03;5086810;28;20204;-72
2021/06/25 03:27:04;;;;;;;10.43;6.27;;;;;;;20.06;77.98;100907.19;5084953;28;20201;-72
2021/06/25 03:29:33;;;;;;;10.13;5.60;;;;;;;20.07;77.49;100911.63;5080597;28;20208;-72
2021/06/25 03:32:01;;;;;;;10.73;5.93;;;;;;;20.06;77.96;100911.78;5085992;28;20204;-72
2021/06/25 03:34:30;;;;;;;8.70;5.70;;;;;;;20.04;77.89;100909.22;5098398;28;20679;-72
2021/06/25 03:37:00;;;;;;;11.63;5.60;;;;;;;20.05;77.94;100900.03;5079332;28;20204;-72
2021/06/25 03:39:28;;;;;;;7.63;4.97;;;;;;;20.10;77.14;100907.72;5084219;28;20309;-72
2021/06/25 03:41:56;;;;;;;8.27;5.40;;;;;;;20.13;76.96;100902.78;5082222;28;20663;-72
2021/06/25 03:44:24;;;;;;;9.27;5.90;;;;;;;20.14;77.58;100903.63;5089933;28;20675;-72
2021/06/25 03:46:52;;;;;;;9.03;5.17;;;;;;;20.14;77.14;100901.75;5089539;28;20204;-72
2021/06/25 03:49:21;;;;;;;8.53;5.10;;;;;;;20.13;77.81;100897.34;5089489;28;20221;-72
2021/06/25 03:51:49;;;;;;;8.00;5.20;;;;;;;20.11;77.79;100899.38;5087757;28;20197;-72
2021/06/25 03:54:18;;;;;;;8.17;5.20;;;;;;;20.12;78.12;100906.53;5089499;28;20200;-72
2021/06/25 03:56:46;;;;;;;8.37;5.43;;;;;;;20.05;78.58;100896.44;5088090;28;20203;-72
2021/06/25 03:59:15;;;;;;;7.67;4.93;;;;;;;20.00;77.70;100880.56;5089479;28;20224;-72
2021/06/25 04:01:43;;;;;;;11.67;5.33;;;;;;;20.15;77.82;100894.44;5088832;28;20193;-72
2021/06/25 04:04:11;;;;;;;8.40;5.40;;;;;;;20.13;77.66;100897.34;5090039;28;20207;-72
2021/06/25 04:06:39;;;;;;;8.40;4.80;;;;;;;20.15;77.47;100895.28;5089905;28;20196;-72
2021/06/25 04:09:07;;;;;;;8.63;5.30;;;;;;;20.16;77.29;100888.81;5089234;28;20201;-72
2021/06/25 04:11:37;;;;;;;10.63;5.60;;;;;;;20.19;77.47;100884.91;5089690;28;20208;-72
2021/06/25 04:14:05;;;;;;;8.17;5.70;;;;;;;20.21;77.39;100882.06;5089341;28;20220;-72
2021/06/25 04:16:33;;;;;;;8.17;5.07;;;;;;;20.21;77.38;100892.97;5089209;28;20240;-72
2021/06/25 04:19:01;;;;;;;10.57;5.50;;;;;;;20.11;78.41;100893.06;5090416;28;20221;-72
2021/06/25 04:21:29;;;;;;;10.20;5.67;;;;;;;20.05;78.88;100891.84;5075901;28;20205;-72
2021/06/25 04:23:57;;;;;;;6.50;4.83;;;;;;;20.02;79.53;100884.00;5075917;28;20207;-72
2021/06/25 04:26:25;;;;;;;7.20;4.80;;;;;;;19.97;79.29;100885.50;5076210;28;20240;-72
2021/06/25 04:28:55;;;;;;;7.20;5.17;;;;;;;20.00;79.24;100886.03;5087309;28;20192;-72
2021/06/25 04:31:23;;;;;;;8.47;4.57;;;;;;;19.92;80.28;100883.25;5089552;28;20559;-72
2021/06/25 04:33:51;;;;;;;7.00;4.57;;;;;;;19.74;81.60;100888.75;5088219;28;20600;-72
2021/06/25 04:36:19;;;;;;;7.47;4.60;;;;;;;19.78;80.73;100883.81;5090406;28;20215;-72
2021/06/25 04:38:47;;;;;;;6.50;4.40;;;;;;;19.77;81.20;100893.03;5085826;28;20722;-72
2021/06/25 04:41:15;;;;;;;6.30;4.40;;;;;;;19.73;81.18;100886.19;5078618;28;20200;-72
2021/06/25 04:43:44;;;;;;;6.53;4.50;;;;;;;19.79;81.06;100890.97;5075935;28;20512;-72
2021/06/25 04:46:14;;;;;;;7.80;4.93;;;;;;;19.86;80.15;100875.69;5073466;28;20196;-72
2021/06/25 04:48:42;;;;;;;8.70;4.57;;;;;;;19.87;80.88;100880.13;5088970;28;20200;-73
2021/06/25 04:51:10;;;;;;;7.23;4.30;;;;;;;19.93;80.58;100887.69;5085713;28;20200;-73
2021/06/25 04:53:38;;;;;;;12.57;4.40;;;;;;;19.97;80.08;100880.03;5088513;28;20271;-71
2021/06/25 04:56:06;;;;;;;6.00;4.23;;;;;;;20.05;79.59;100882.81;5088227;28;20293;-71
2021/06/25 04:58:34;;;;;;;7.13;4.50;;;;;;;20.05;79.88;100883.66;5088064;28;20197;-71
2021/06/25 05:01:03;;;;;;;8.30;5.03;;;;;;;20.07;79.57;100880.78;5089330;28;20193;-72
2021/06/25 05:03:33;;;;;;;7.70;4.87;;;;;;;20.15;79.39;100883.53;5088748;28;20222;-71
2021/06/25 05:06:01;;;;;;;9.27;4.50;;;;;;;20.20;78.64;100885.75;5089654;28;20211;-71
2021/06/25 05:08:29;;;;;;;5.30;4.00;;;;;;;20.20;78.56;100886.63;5088292;28;20254;-71
2021/06/25 05:10:57;;;;;;;6.67;4.40;;;;;;;20.17;79.05;100897.84;5088299;28;20383;-71
2021/06/25 05:13:26;;;;;;;7.63;4.57;;;;;;;20.04;80.12;100906.50;5072845;28;20199;-71
2021/06/25 05:15:54;;;;;;;7.50;4.60;;;;;;;19.72;81.96;100892.66;5088913;28;20215;-71
2021/06/25 05:18:24;;;;;;;11.33;5.20;;;;;;;19.84;80.84;100900.38;5087947;28;20224;-71
2021/06/25 05:21:13;;;;;;;10.80;4.57;;;;;;;19.88;80.71;100887.28;5088798;28;20698;-71
2021/06/25 05:23:41;;;;;;;8.87;4.73;;;;;;;19.88;80.64;100897.34;5088109;28;20228;-72
2021/06/25 05:26:09;;;;;;;9.00;4.90;;;;;;;19.70;81.53;100878.31;5089308;28;20569;-72
2021/06/25 05:28:37;;;;;;;5.20;4.07;;;;;;;19.62;81.63;100884.59;5087786;28;20201;-72
2021/06/25 05:31:06;;;;;;;8.90;4.90;;;;;;;19.62;82.13;100889.19;5087958;28;20192;-72
2021/06/25 05:33:34;;;;;;;6.87;4.23;;;;;;;19.70;81.88;100883.78;5073499;28;20280;-72
2021/06/25 05:36:02;;;;;;;5.07;3.83;;;;;;;19.79;81.13;100888.25;5088936;28;20201;-72
2021/06/25 05:38:31;;;;;;;6.90;4.50;;;;;;;19.85;81.08;100876.72;5087263;28;20258;-71
2021/06/25 05:40:59;;;;;;;7.93;4.33;;;;;;;19.95;80.96;100888.38;5085854;28;20239;-72
2021/06/25 05:43:28;;;;;;;5.80;4.17;;;;;;;20.00;80.42;100883.28;5088027;28;20200;-71
2021/06/25 05:45:56;;;;;;;6.93;4.30;;;;;;;19.99;80.51;100886.19;5083094;28;20197;-72
2021/06/25 05:48:24;;;;;;;6.33;3.80;;;;;;;19.92;79.60;100866.91;5080935;28;20193;-72
2021/06/25 05:50:52;;;;;;;5.80;4.13;;;;;;;20.01;80.03;100898.63;5084747;28;20200;-72
2021/06/25 05:53:20;;;;;;;6.23;4.23;;;;;;;20.00;80.01;100899.66;5087731;28;20211;-72
2021/06/25 05:55:50;;;;;;;9.63;4.63;;;;;;;20.07;80.03;100900.72;5077088;28;20680;-73
2021/06/25 05:58:18;;;;;;;5.63;4.03;;;;;;;20.08;79.78;100891.50;5076994;28;20200;-71
2021/06/25 06:00:46;;;;;;;7.00;4.80;;;;;;;20.11;79.89;100883.00;5086531;28;20599;-72
2021/06/25 06:03:14;;;;;;;9.60;4.57;;;;;;;19.95;81.16;100882.94;5087913;28;20192;-72
2021/06/25 06:05:43;;;;;;;6.77;4.77;;;;;;;19.92;81.45;100891.44;5088416;28;20197;-72
2021/06/25 06:08:11;;;;;;;8.47;4.50;;;;;;;19.81;82.17;100891.69;5086835;28;20663;-72
2021/06/25 06:10:39;;;;;;;7.10;4.27;;;;;;;19.67;82.99;100897.72;5087470;28;20577;-71
2021/06/25 06:13:08;;;;;;;6.67;4.63;;;;;;;19.71;81.83;100880.03;5086357;28;20250;-72
2021/06/25 06:15:36;;;;;;;7.53;4.33;;;;;;;19.92;81.22;100890.56;5087995;28;20209;-72
2021/06/25 06:18:06;;;;;;;6.50;4.17;;;;;;;19.75;80.90;100860.47;5086922;28;20762;-71
2021/06/25 06:20:34;;;;;;;8.27;4.83;;;;;;;20.01;79.99;100903.22;5092946;28;20246;-72
2021/06/25 06:31:22;;;;;;;5.60;4.10;;;;;;;20.04;78.51;100913.81;5088006;28;20589;-72
2021/06/25 06:33:54;;;;;;;7.40;3.70;;;;;;;20.07;79.30;100919.81;5085871;28;20196;-73
2021/06/25 06:36:26;;;;;;;5.83;4.17;;;;;;;19.99;80.61;100927.94;5087303;28;20200;-73
2021/06/25 06:38:56;;;;;;;5.53;3.67;;;;;;;19.98;80.94;100928.09;5085364;28;20185;-72
2021/06/25 06:41:25;;;;;;;4.43;3.27;;;;;;;20.06;80.09;100917.22;5088326;28;20301;-72
2021/06/25 06:43:55;;;;;;;4.37;3.40;;;;;;;20.17;79.86;100919.69;5086110;28;20261;-72
2021/06/25 06:46:24;;;;;;;5.47;3.63;;;;;;;20.21;79.16;100921.09;5086702;28;20207;-72
2021/06/25 06:48:53;;;;;;;4.07;3.63;;;;;;;20.22;78.99;100927.41;5086322;28;20204;-72
2021/06/25 06:51:21;;;;;;;6.23;3.23;;;;;;;20.26;78.47;100921.47;5086566;28;20200;-73
2021/06/25 06:53:50;;;;;;;6.00;3.97;;;;;;;20.29;78.32;100915.66;5088125;28;20193;-72
2021/06/25 06:56:20;;;;;;;4.97;3.40;;;;;;;20.30;78.33;100911.94;5083514;28;20204;-72
2021/06/25 06:58:48;;;;;;;4.03;3.20;;;;;;;20.33;78.18;100897.09;5086544;28;20711;-72
2021/06/25 07:01:18;;;;;;;5.20;3.50;;;;;;;20.48;77.88;100919.19;5086276;28;20216;-72
2021/06/25 07:04:05;;;;;;;6.30;3.97;;;;;;;20.52;76.61;100924.19;5086697;28;20281;-72
2021/06/25 07:06:34;;;;;;;4.53;3.50;;;;;;;20.39;76.93;100896.44;5070798;28;20208;-72
2021/06/25 07:09:02;;;;;;;5.67;3.67;;;;;;;20.52;76.57;100916.00;5078122;28;20193;-72
2021/06/25 07:11:30;;;;;;;5.43;3.43;;;;;;;20.51;77.16;100919.75;5082015;28;20560;-72
2021/06/25 07:13:58;;;;;;;5.70;4.27;;;;;;;20.53;76.60;100917.69;5086289;28;20208;-72
2021/06/25 07:16:28;;;;;;;6.30;4.10;;;;;;;20.26;77.77;100879.69;5087215;28;20591;-72
2021/06/25 07:18:56;;;;;;;5.37;4.03;;;;;;;20.42;77.82;100918.81;5084619;28;20225;-72
2021/06/25 07:21:24;;;;;;;6.37;4.23;;;;;;;20.42;77.62;100917.97;5083701;28;20216;-72
2021/06/25 07:23:52;;;;;;;4.97;3.80;;;;;;;20.44;77.08;100919.50;5075089;28;20314;-72
2021/06/25 07:26:21;;;;;;;5.57;3.40;;;;;;;20.48;76.97;100920.03;5091880;28;20193;-72
2021/06/25 07:28:49;;;;;;;5.40;4.00;;;;;;;20.48;76.53;100917.31;5088777;28;20212;-72
2021/06/25 07:31:21;;;;;;;6.43;3.60;;;;;;;20.51;76.57;100927.03;5090569;28;20231;-72
2021/06/25 07:33:51;;;;;;;6.27;3.50;;;;;;;20.45;77.40;100912.19;5090289;28;20193;-72
2021/06/25 07:36:20;;;;;;;5.07;3.50;;;;;;;20.32;77.47;100898.13;5092108;28;20570;-72
2021/06/25 07:38:48;;;;;;;5.40;3.47;;;;;;;20.35;78.30;100927.81;5088303;28;20208;-72
2021/06/25 07:41:16;;;;;;;5.27;3.70;;;;;;;20.37;78.03;100929.34;5090114;28;20691;-72
2021/06/25 07:43:44;;;;;;;5.37;3.83;;;;;;;20.38;77.57;100930.19;5076558;28;20201;-72
2021/06/25 07:46:12;;;;;;;6.27;4.00;;;;;;;20.37;78.70;100936.69;5087407;28;20442;-72
2021/06/25 07:48:40;;;;;;;4.77;3.30;;;;;;;20.20;78.68;100932.13;5101929;28;20289;-72
2021/06/25 07:51:10;;;;;;;5.70;3.60;;;;;;;20.27;78.20;100931.34;5089311;28;20188;-72
2021/06/25 07:53:38;;;;;;;4.27;3.10;;;;;;;20.26;78.59;100920.59;5082563;28;20598;-72
2021/06/25 07:56:06;;;;;;;4.13;3.33;;;;;;;20.30;78.37;100924.72;5088091;28;20196;-72
2021/06/25 07:58:34;;;;;;;3.70;3.03;;;;;;;20.29;78.09;100933.91;5089956;28;20204;-72
2021/06/25 08:01:02;;;;;;;4.23;3.10;;;;;;;20.31;77.73;100929.16;5079574;28;20742;-72
2021/06/25 08:03:31;;;;;;;4.07;3.10;;;;;;;20.28;77.88;100933.06;5083715;28;20522;-72
2021/06/25 08:05:59;;;;;;;4.87;2.90;;;;;;;20.24;78.50;100931.69;5081093;28;20261;-72
2021/06/25 08:08:29;;;;;;;3.73;3.03;;;;;;;20.14;79.62;100931.78;5089416;28;20592;-72
2021/06/25 08:10:57;;;;;;;10.07;3.37;;;;;;;20.15;79.41;100938.94;5090749;28;20200;-72
2021/06/25 08:13:25;;;;;;;6.07;3.27;;;;;;;19.97;81.44;100931.84;5086072;28;20227;-72
2021/06/25 08:15:53;;;;;;;3.50;2.90;;;;;;;19.93;81.33;100942.22;5094817;28;20700;-72
2021/06/25 08:18:23;;;;;;;3.33;2.80;;;;;;;19.96;81.71;100941.91;5088156;28;20266;-72
2021/06/25 08:20:52;;;;;;;3.83;2.90;;;;;;;20.01;80.78;100936.81;5090189;28;20205;-72
2021/06/25 08:23:20;;;;;;;4.43;3.33;;;;;;;19.93;82.09;100939.50;5089386;28;20566;-72
2021/06/25 08:25:50;;;;;;;3.37;2.80;;;;;;;20.03;81.89;100933.91;5090117;28;20279;-72
2021/06/25 08:28:18;;;;;;;5.40;3.07;;;;;;;20.02;82.57;100938.53;5090296;28;20690;-72
2021/06/25 08:30:47;;;;;;;3.13;2.70;;;;;;;19.85;82.78;100909.41;5090277;28;20703;-72
2021/06/25 08:33:15;;;;;;;5.37;2.73;;;;;;;20.06;82.20;100933.59;5088902;28;20197;-72
2021/06/25 08:35:43;;;;;;;3.00;2.70;;;;;;;20.24;81.99;100926.22;5088747;28;20235;-72
2021/06/25 08:38:11;;;;;;;6.17;3.20;;;;;;;20.38;81.64;100932.94;5089408;28;20314;-71
2021/06/25 08:40:40;;;;;;;4.07;2.70;;;;;;;20.36;80.92;100935.81;5075189;28;20197;-71
2021/06/25 08:43:09;;;;;;;3.43;2.50;;;;;;;20.41;80.52;100927.19;5088714;28;20203;-71
2021/06/25 08:45:38;;;;;;;3.10;2.67;;;;;;;20.58;81.71;100928.13;5088805;28;20193;-72
2021/06/25 08:48:09;;;;;;;2.90;2.40;;;;;;;20.68;80.39;100918.75;5088709;28;20196;-72
2021/06/25 08:50:40;;;;;;;3.03;2.60;;;;;;;20.67;80.15;100922.50;5089880;28;20553;-72
2021/06/25 08:53:08;;;;;;;3.60;2.50;;;;;;;20.88;79.66;100913.03;5088843;28;20219;-72
2021/06/25 08:55:43;;;;;;;3.77;2.50;;;;;;;20.99;79.47;100923.63;5088193;28;20450;-72
2021/06/25 08:58:15;;;;;;;4.47;2.70;;;;;;;20.94;79.78;100920.56;5086635;28;20196;-72
2021/06/25 09:00:43;;;;;;;6.13;2.47;;;;;;;21.01;80.20;100927.06;5089218;28;20246;-72
2021/06/25 09:03:20;;;;;;;3.47;2.80;;;;;;;20.90;79.67;100903.66;5087395;28;20199;-72
2021/06/25 09:05:49;;;;;;;3.93;2.70;;;;;;;20.89;79.09;100925.66;5089400;28;20222;-71
2021/06/25 09:08:28;;;;;;;4.33;2.80;;;;;;;20.81;79.08;100936.53;5087763;28;20553;-71
2021/06/25 09:10:59;;;;;;;5.07;2.97;;;;;;;20.55;79.16;100903.88;5076369;28;20232;-71
2021/06/25 09:13:34;;;;;;;4.30;3.00;;;;;;;20.56;79.23;100931.00;5086042;28;20243;-71
2021/06/25 09:16:18;;;;;;;8.07;2.90;;;;;;;20.74;78.54;100934.47;5088776;28;20261;-71
2021/06/25 09:18:57;;;;;;;6.20;2.97;;;;;;;20.59;78.29;100906.13;5087787;28;20271;-71
2021/06/25 09:21:25;;;;;;;3.97;2.93;;;;;;;20.57;78.80;100937.31;5086653;28;20585;-71
2021/06/25 09:23:54;;;;;;;4.30;3.13;;;;;;;20.44;79.47;100938.63;5087742;28;20234;-72
2021/06/25 09:26:34;;;;;;;5.00;2.87;;;;;;;20.49;80.13;100932.66;5088382;28;20196;-71
2021/06/25 09:29:18;;;;;;;8.13;3.47;;;;;;;20.73;79.82;100937.38;5073679;28;20699;-71
2021/06/25 09:31:56;;;;;;;5.57;3.37;;;;;;;20.65;79.62;100934.63;5087219;28;20200;-71
2021/06/25 09:34:39;;;;;;;4.70;2.90;;;;;;;20.68;80.24;100943.34;5089075;28;20350;-72
2021/06/25 09:37:10;;;;;;;4.40;3.43;;;;;;;20.85;78.70;100936.06;5086822;28;20208;-72
2021/06/25 09:39:41;;;;;;;4.50;3.27;;;;;;;20.71;79.33;100934.81;5087242;28;20782;-72
2021/06/25 09:42:17;;;;;;;3.80;2.90;;;;;;;20.68;79.37;100937.88;5087362;28;20224;-72
2021/06/25 09:44:59;;;;;;;4.83;3.23;;;;;;;20.57;79.54;100943.63;5088938;28;20203;-72
2021/06/25 09:47:28;;;;;;;6.93;3.37;;;;;;;20.64;78.99;100943.84;5085274;28;20605;-72
2021/06/25 09:50:12;;;;;;;3.93;3.00;;;;;;;20.76;78.48;100937.91;5075408;28;20196;-73
2021/06/25 09:52:54;;;;;;;7.47;3.37;;;;;;;20.79;78.74;100953.09;5083921;28;20556;-72
2021/06/25 09:55:24;;;;;;;4.10;3.17;;;;;;;20.73;78.69;100943.69;5076488;28;20201;-72
2021/06/25 09:58:16;;;;;;;5.20;3.30;;;;;;;20.83;78.47;100946.31;5087364;28;20737;-72
2021/06/25 10:03:33;;;;;;;3.70;3.17;;;;;;;20.99;78.55;100948.22;5071190;28;20643;-72
2021/06/25 10:06:09;;;;;;;5.47;3.10;;;;;;;21.01;77.86;100957.94;5067594;28;20205;-71
2021/06/25 10:08:38;;;;;;;4.40;3.20;;;;;;;20.97;77.89;100945.66;5087490;28;20584;-72
2021/06/25 10:11:07;;;;;;;4.10;3.10;;;;;;;20.87;78.11;100933.16;5088444;28;20201;-72
2021/06/25 10:13:38;;;;;;;3.73;3.00;;;;;;;20.91;78.61;100948.19;5082223;28;20193;-72
2021/06/25 10:16:09;;;;;;;4.17;3.17;;;;;;;20.88;77.93;100956.72;5094066;28;20672;-71
2021/06/25 10:18:39;;;;;;;6.37;3.60;;;;;;;20.92;78.10;100953.50;5086584;28;20220;-71
2021/06/25 10:21:09;;;;;;;5.13;3.37;;;;;;;21.01;78.29;100949.75;5088112;28;20200;-73
2021/06/25 10:23:40;;;;;;;4.47;3.30;;;;;;;21.05;77.89;100953.00;5085139;28;20216;-73
2021/06/25 10:26:11;;;;;;;4.53;2.90;;;;;;;21.01;78.21;100955.22;5086967;28;20556;-72
2021/06/25 10:28:42;;;;;;;3.83;2.80;;;;;;;20.95;77.42;100947.69;5087385;28;20200;-73
2021/06/25 10:31:14;;;;;;;6.03;2.83;;;;;;;20.93;76.53;100965.28;5087537;28;20718;-72
2021/06/25 10:33:44;;;;;;;2.90;2.60;;;;;;;20.78;76.93;100957.69;5087117;28;20608;-72
2021/06/25 10:36:14;;;;;;;4.10;2.70;;;;;;;20.80;76.23;100962.13;5087888;28;20204;-73
2021/06/25 10:38:44;;;;;;;3.70;2.80;;;;;;;20.77;76.82;100968.78;5085057;28;20197;-72
2021/06/25 10:41:13;;;;;;;4.93;2.70;;;;;;;20.44;76.45;100935.03;5083395;28;20288;-72
2021/06/25 10:43:44;;;;;;;2.63;2.30;;;;;;;20.51;75.84;100966.13;5080528;28;20248;-73
2021/06/25 10:46:39;;;;;;;3.47;2.50;;;;;;;20.56;75.70;100971.09;5081078;28;20691;-72
2021/06/25 10:49:10;;;;;;;5.57;2.60;;;;;;;20.60;75.71;100967.88;5073707;28;20212;-72
2021/06/25 10:51:40;;;;;;;2.67;2.37;;;;;;;20.71;75.26;100966.72;5082169;28;20655;-72
2021/06/25 10:54:15;;;;;;;2.50;2.30;;;;;;;20.85;76.20;100968.84;5085884;28;20201;-72
2021/06/25 10:56:46;;;;;;;2.90;2.60;;;;;;;21.05;75.35;100966.66;5085045;28;20236;-72
2021/06/25 10:59:25;;;;;;;3.03;2.50;;;;;;;21.27;74.32;100966.06;5085143;28;20249;-72
2021/06/25 11:01:57;;;;;;;5.73;2.57;;;;;;;21.48;74.00;100975.69;5086264;28;20678;-72
2021/06/25 11:04:37;;;;;;;4.07;2.90;;;;;;;21.45;74.88;100976.03;5086750;28;20667;-72
2021/06/25 11:07:08;;;;;;;3.63;2.70;;;;;;;21.58;74.51;100970.91;5073580;28;20603;-73
2021/06/25 11:10:05;;;;;;;5.70;2.60;;;;;;;21.64;74.58;100967.47;5073798;28;20628;-72
2021/06/25 11:12:34;;;;;;;3.03;2.40;;;;;;;21.73;73.85;100971.06;5067542;28;20193;-73
2021/06/25 11:15:32;;;;;;;3.60;2.83;;;;;;;21.80;73.53;100986.63;5082920;28;20288;-72
2021/06/25 11:18:14;;;;;;;3.13;2.70;;;;;;;21.81;73.59;100985.59;5086204;28;20315;-72
2021/06/25 11:20:50;;;;;;;3.63;2.67;;;;;;;21.90;73.32;100981.84;5086801;28;20204;-72
2021/06/25 11:23:22;;;;;;;4.43;2.47;;;;;;;21.90;73.60;100970.03;5085212;28;20580;-73
2021/06/25 11:25:52;;;;;;;3.00;2.70;;;;;;;22.04;73.39;100982.19;5087604;28;20649;-72
2021/06/25 11:28:33;;;;;;;3.10;2.57;;;;;;;22.07;73.71;100984.59;5086587;28;20603;-72
2021/06/25 11:31:27;;;;;;;4.80;2.57;;;;;;;21.94;73.20;100969.53;5076655;28;20300;-72
2021/06/25 11:34:01;;;;;;;3.67;2.50;;;;;;;22.06;73.26;100982.91;5078936;28;20724;-73
2021/06/25 11:36:41;;;;;;;4.43;2.93;;;;;;;22.16;73.90;100992.63;5078779;28;20201;-72
2021/06/25 11:39:14;;;;;;;3.97;2.50;;;;;;;21.83;73.44;100919.81;5084670;28;20585;-72
2021/06/25 11:41:52;;;;;;;3.10;2.67;;;;;;;22.26;73.35;100990.53;5087731;28;20193;-73
2021/06/25 11:44:23;;;;;;;5.30;2.93;;;;;;;22.18;74.16;100995.19;5085673;28;20223;-72
2021/06/25 11:46:55;;;;;;;3.67;2.73;;;;;;;21.67;74.45;100997.19;5086119;28;20203;-73
2021/06/25 11:49:26;;;;;;;4.23;2.50;;;;;;;21.16;74.90;101001.88;5086081;28;20197;-72